Time;durP1;ratioP1;P1;durP2;ratioP2;P2;SDS_P1;SDS_P2;PMS_P1;PMS_P2;Temp;Humidity;BMP_temperature;BMP_pressure;BME280_temperature;BME280_humidity;BME280_pressure;Samples;Min_cycle;Max_cycle;Signal;HPM_P1;HPM_P2
2022/03/29 00:01:56;;;;;;;19.98;13.98;;;15.30;40.20;;;;;;5029835;28;20104;-70
2022/03/29 00:04:22;;;;;;;19.77;13.65;;;15.20;40.00;;;;;;5031644;28;20037;-70
2022/03/29 00:06:49;;;;;;;24.25;13.50;;;15.30;40.20;;;;;;5031690;28;20377;-69
2022/03/29 00:09:15;;;;;;;22.27;14.10;;;15.20;40.20;;;;;;5030771;28;20026;-70
2022/03/29 00:11:41;;;;;;;25.50;14.63;;;15.20;40.00;;;;;;5031331;28;20111;-70
2022/03/29 00:14:07;;;;;;;27.05;14.50;;;15.20;40.00;;;;;;5030736;28;20084;-71
2022/03/29 00:16:33;;;;;;;25.08;14.10;;;15.20;39.90;;;;;;5035274;28;20099;-69
2022/03/29 00:18:59;;;;;;;20.23;13.85;;;15.30;40.00;;;;;;5034700;28;20056;-70
2022/03/29 00:21:25;;;;;;;25.30;13.80;;;15.30;40.00;;;;;;5035255;28;20437;-70
2022/03/29 00:23:50;;;;;;;22.30;13.88;;;15.30;39.90;;;;;;5037865;28;20631;-70
2022/03/29 00:26:16;;;;;;;20.05;13.35;;;15.30;39.90;;;;;;5054395;28;20067;-70
2022/03/29 00:28:43;;;;;;;22.45;14.73;;;15.30;40.00;;;;;;5055040;28;20039;-69
2022/03/29 00:31:09;;;;;;;20.90;13.63;;;15.30;40.00;;;;;;5054111;28;20032;-69
2022/03/29 00:33:35;;;;;;;21.10;13.68;;;15.30;40.10;;;;;;5054986;28;20025;-69
2022/03/29 00:36:01;;;;;;;20.73;14.35;;;15.20;40.10;;;;;;5054295;28;20032;-70
2022/03/29 00:38:26;;;;;;;18.10;12.68;;;15.20;40.10;;;;;;5054599;28;20028;-70
2022/03/29 00:40:53;;;;;;;23.08;14.25;;;15.20;40.10;;;;;;5054824;28;20055;-70
2022/03/29 00:43:18;;;;;;;23.00;14.35;;;15.20;40.20;;;;;;5054335;28;20136;-71
2022/03/29 00:45:45;;;;;;;24.27;14.15;;;15.20;40.20;;;;;;5054776;28;20108;-71
2022/03/29 00:48:13;;;;;;;23.52;13.77;;;15.20;40.30;;;;;;5054066;28;20120;-70
2022/03/29 00:50:40;;;;;;;24.10;14.95;;;15.20;40.40;;;;;;5054574;28;20033;-70
2022/03/29 00:53:08;;;;;;;21.40;14.45;;;15.10;40.40;;;;;;5053706;28;20032;-69
2022/03/29 00:55:34;;;;;;;17.83;13.85;;;15.10;40.50;;;;;;5054379;28;20119;-70
2022/03/29 00:58:02;;;;;;;19.88;14.57;;;15.10;40.50;;;;;;5053504;28;20524;-70
2022/03/29 01:00:32;;;;;;;21.30;13.93;;;15.10;40.50;;;;;;5054344;28;20040;-69
2022/03/29 01:02:58;;;;;;;26.85;14.27;;;15.10;40.50;;;;;;5053656;28;20033;-78
2022/03/29 01:05:26;;;;;;;22.90;14.55;;;15.00;40.40;;;;;;5054332;28;20047;-71
2022/03/29 01:07:54;;;;;;;26.13;14.38;;;15.00;40.50;;;;;;5054242;28;20386;-70
2022/03/29 01:10:20;;;;;;;23.67;15.15;;;15.00;40.50;;;;;;5053850;28;20052;-70
2022/03/29 01:12:46;;;;;;;22.38;13.85;;;15.00;40.60;;;;;;5054248;28;20110;-69
2022/03/29 01:15:13;;;;;;;21.95;13.82;;;15.00;40.60;;;;;;5053694;28;20163;-71
2022/03/29 01:17:41;;;;;;;21.58;13.85;;;14.90;40.60;;;;;;5053597;28;20025;-69
2022/03/29 01:23:13;;;;;;;23.13;13.32;;;14.90;40.60;;;;;;5053424;28;20040;-69
2022/03/29 01:25:43;;;;;;;21.05;14.60;;;14.90;40.60;;;;;;5053221;28;20466;-69
2022/03/29 01:28:11;;;;;;;22.85;14.50;;;14.90;40.60;;;;;;5052978;28;20123;-70
2022/03/29 01:30:37;;;;;;;22.98;14.10;;;14.90;40.70;;;;;;5052588;28;20021;-70
2022/03/29 01:33:07;;;;;;;23.58;13.85;;;14.90;40.60;;;;;;5053044;28;20048;-70
2022/03/29 01:35:33;;;;;;;23.17;13.98;;;14.90;40.60;;;;;;5053828;28;20107;-69
2022/03/29 01:37:59;;;;;;;21.05;13.50;;;14.90;40.70;;;;;;5053809;28;20033;-70
2022/03/29 01:40:26;;;;;;;23.88;14.80;;;14.90;40.70;;;;;;5053537;28;20469;-70
2022/03/29 01:42:54;;;;;;;25.48;13.85;;;14.90;40.70;;;;;;5053666;28;20028;-70
2022/03/29 01:45:22;;;;;;;25.67;14.73;;;14.90;40.70;;;;;;5053090;28;20078;-70
2022/03/29 01:47:48;;;;;;;24.67;13.73;;;14.90;40.60;;;;;;5053284;28;20496;-71
2022/03/29 01:50:14;;;;;;;21.23;14.15;;;14.90;40.60;;;;;;5052666;28;20053;-70
2022/03/29 01:52:58;;;;;;;22.13;13.20;;;14.90;40.50;;;;;;5053646;28;20379;-70
2022/03/29 01:55:25;;;;;;;23.10;14.02;;;14.90;40.50;;;;;;5052865;28;20053;-71
2022/03/29 01:57:51;;;;;;;24.15;14.75;;;14.90;40.50;;;;;;5053467;28;20036;-70
2022/03/29 02:00:34;;;;;;;19.20;13.65;;;14.90;40.50;;;;;;5052464;28;20033;-70
2022/03/29 02:03:05;;;;;;;20.77;14.45;;;14.90;40.50;;;;;;5053270;28;20055;-70
2022/03/29 02:05:32;;;;;;;19.60;13.63;;;14.90;40.60;;;;;;5053299;28;20044;-70
2022/03/29 02:07:58;;;;;;;23.77;14.20;;;14.90;40.50;;;;;;5053056;28;20572;-70
2022/03/29 02:10:23;;;;;;;22.95;14.77;;;14.90;40.60;;;;;;5052730;28;20028;-70
2022/03/29 02:12:51;;;;;;;21.92;13.38;;;14.90;40.60;;;;;;5053623;28;20420;-70
2022/03/29 02:15:17;;;;;;;20.60;14.27;;;14.90;40.70;;;;;;5051333;28;20381;-70
2022/03/29 02:17:44;;;;;;;22.15;14.30;;;14.90;40.70;;;;;;5053051;28;20052;-69
2022/03/29 02:20:13;;;;;;;22.23;13.93;;;14.80;40.80;;;;;;5052041;28;20056;-70
2022/03/29 02:22:39;;;;;;;21.35;14.35;;;14.80;40.80;;;;;;5052876;28;20104;-70
2022/03/29 02:25:05;;;;;;;21.45;15.05;;;14.80;41.00;;;;;;5052211;28;20457;-71
2022/03/29 02:27:31;;;;;;;21.95;14.00;;;14.80;41.20;;;;;;5052879;28;20484;-70
2022/03/29 02:29:57;;;;;;;19.92;13.75;;;14.70;41.30;;;;;;5052764;28;20029;-70
2022/03/29 02:32:22;;;;;;;20.85;14.13;;;14.60;41.50;;;;;;5051781;28;20381;-70
2022/03/29 02:34:48;;;;;;;20.92;14.48;;;14.60;41.50;;;;;;5052378;28;20037;-70
2022/03/29 02:37:14;;;;;;;20.60;13.73;;;14.60;41.70;;;;;;5051540;28;20029;-70
2022/03/29 02:39:40;;;;;;;20.40;13.73;;;14.50;41.60;;;;;;5052571;28;20135;-70
2022/03/29 02:42:07;;;;;;;18.83;12.90;;;14.50;41.70;;;;;;5051972;28;20028;-71
2022/03/29 02:44:33;;;;;;;25.52;14.13;;;14.50;41.80;;;;;;5052149;28;20063;-70
2022/03/29 02:46:59;;;;;;;22.77;14.75;;;14.50;41.80;;;;;;5052781;28;20054;-69
2022/03/29 02:49:25;;;;;;;22.48;14.43;;;14.50;41.70;;;;;;5051802;28;20592;-70
2022/03/29 02:51:51;;;;;;;21.73;14.15;;;14.50;41.80;;;;;;5052704;28;20561;-69
2022/03/29 02:54:17;;;;;;;21.67;14.73;;;14.50;41.90;;;;;;5050154;28;20065;-70
2022/03/29 02:56:43;;;;;;;26.38;14.55;;;14.50;42.00;;;;;;5052409;28;20080;-69
2022/03/29 02:59:09;;;;;;;24.73;15.57;;;14.50;42.00;;;;;;5051488;28;20032;-70
2022/03/29 03:01:35;;;;;;;20.60;13.85;;;14.40;42.00;;;;;;5052074;28;20029;-69
2022/03/29 03:04:01;;;;;;;22.13;14.38;;;14.50;42.10;;;;;;5052118;28;20025;-70
2022/03/29 03:06:26;;;;;;;21.92;13.32;;;14.40;42.20;;;;;;5051223;28;20078;-71
2022/03/29 03:08:52;;;;;;;21.00;14.38;;;14.40;42.30;;;;;;5052009;28;20025;-69
2022/03/29 03:11:18;;;;;;;23.75;13.77;;;14.40;42.90;;;;;;5051540;28;20035;-70
2022/03/29 03:13:43;;;;;;;20.48;14.00;;;14.30;42.50;;;;;;5052030;28;20025;-69
2022/03/29 03:16:09;;;;;;;25.85;14.18;;;14.30;42.70;;;;;;5050897;28;20421;-70
2022/03/29 03:18:36;;;;;;;25.77;13.90;;;14.30;42.70;;;;;;5051859;28;20083;-70
2022/03/29 03:21:02;;;;;;;21.38;14.65;;;14.30;42.90;;;;;;5051880;28;20112;-69
2022/03/29 03:23:29;;;;;;;20.73;14.13;;;14.30;42.90;;;;;;5050813;28;20116;-69
2022/03/29 03:25:54;;;;;;;20.58;14.20;;;14.20;42.90;;;;;;5051940;28;20032;-69
2022/03/29 03:28:20;;;;;;;21.75;14.70;;;14.30;42.90;;;;;;5050964;28;20025;-69
2022/03/29 03:30:46;;;;;;;24.67;15.85;;;14.20;43.00;;;;;;5051838;28;20025;-70
2022/03/29 03:33:12;;;;;;;25.45;13.35;;;14.20;43.00;;;;;;5050955;28;20488;-69
2022/03/29 03:35:38;;;;;;;25.45;14.55;;;14.20;43.00;;;;;;5050546;28;20036;-69
2022/03/29 03:38:05;;;;;;;23.13;15.77;;;14.20;43.20;;;;;;5050433;28;20040;-70
2022/03/29 03:40:30;;;;;;;23.17;14.73;;;14.20;43.20;;;;;;5050965;28;20036;-70
2022/03/29 03:42:56;;;;;;;21.90;14.25;;;14.10;43.40;;;;;;5051945;28;20033;-70
2022/03/29 03:45:22;;;;;;;22.83;15.25;;;14.10;43.60;;;;;;5051164;28;20108;-70
2022/03/29 03:47:48;;;;;;;27.77;15.85;;;14.10;43.60;;;;;;5051649;28;20017;-70
2022/03/29 03:50:14;;;;;;;29.50;15.45;;;14.10;43.80;;;;;;5053265;28;20431;-71
2022/03/29 03:52:39;;;;;;;25.33;15.57;;;14.00;43.90;;;;;;5055746;28;20454;-70
2022/03/29 03:55:06;;;;;;;22.85;14.68;;;14.00;43.90;;;;;;5055452;28;20047;-70
2022/03/29 03:57:31;;;;;;;22.33;14.80;;;14.00;43.90;;;;;;5055093;28;20377;-70
2022/03/29 03:59:57;;;;;;;24.45;15.35;;;14.00;44.10;;;;;;5055282;28;20033;-70
2022/03/29 04:02:23;;;;;;;25.73;15.95;;;14.00;44.20;;;;;;5054925;28;20060;-70
2022/03/29 04:04:49;;;;;;;26.35;14.90;;;13.90;44.20;;;;;;5055153;28;20469;-70
2022/03/29 04:07:15;;;;;;;25.48;14.60;;;13.90;44.30;;;;;;5055090;28;20029;-70
2022/03/29 04:09:40;;;;;;;23.60;15.73;;;13.90;44.30;;;;;;5055239;28;20029;-71
2022/03/29 04:12:07;;;;;;;23.77;15.77;;;13.90;44.30;;;;;;5055214;28;20393;-71
2022/03/29 04:14:33;;;;;;;26.17;15.45;;;13.90;44.20;;;;;;5054714;28;20112;-69
2022/03/29 04:16:59;;;;;;;21.92;15.05;;;13.90;44.40;;;;;;5055093;28;20045;-70
2022/03/29 04:19:25;;;;;;;22.20;14.90;;;13.90;44.40;;;;;;5054413;28;20032;-71
2022/03/29 04:21:50;;;;;;;24.10;15.45;;;13.90;44.50;;;;;;5054716;28;20048;-71
2022/03/29 04:24:16;;;;;;;24.40;15.63;;;13.90;44.60;;;;;;5054726;28;20116;-71
2022/03/29 04:26:42;;;;;;;27.45;15.75;;;13.90;44.70;;;;;;5054875;28;20481;-71
2022/03/29 04:29:08;;;;;;;26.92;16.23;;;13.90;44.80;;;;;;5055011;28;20021;-70
2022/03/29 04:31:33;;;;;;;26.70;15.45;;;13.80;44.80;;;;;;5054345;28;20381;-70
2022/03/29 04:34:00;;;;;;;25.25;15.05;;;13.90;44.90;;;;;;5055085;28;20474;-70
2022/03/29 04:36:26;;;;;;;25.95;16.20;;;13.80;44.90;;;;;;5054344;28;20057;-70
2022/03/29 04:38:52;;;;;;;24.95;15.15;;;13.80;44.90;;;;;;5054553;28;20419;-70
2022/03/29 04:41:18;;;;;;;27.92;15.50;;;13.80;45.20;;;;;;5054203;28;20028;-71
2022/03/29 04:43:44;;;;;;;28.02;15.15;;;13.80;45.20;;;;;;5054627;28;20029;-69
2022/03/29 04:46:10;;;;;;;25.23;16.33;;;13.70;45.20;;;;;;5054720;28;20045;-70
2022/03/29 04:48:36;;;;;;;28.52;16.63;;;13.70;45.20;;;;;;5054211;28;20033;-70
2022/03/29 04:51:02;;;;;;;27.70;17.20;;;13.70;45.30;;;;;;5054400;28;20446;-70
2022/03/29 04:53:28;;;;;;;28.13;16.45;;;13.80;45.50;;;;;;5052832;28;20029;-70
2022/03/29 04:55:54;;;;;;;31.33;17.08;;;13.80;45.50;;;;;;5054168;28;20102;-69
2022/03/29 04:58:20;;;;;;;33.55;16.50;;;13.70;45.80;;;;;;5050645;28;20017;-70
2022/03/29 05:00:46;;;;;;;51.75;16.85;;;13.70;45.90;;;;;;5053675;28;20025;-70
2022/03/29 05:03:12;;;;;;;41.47;17.30;;;13.70;45.90;;;;;;5054267;28;20147;-70
2022/03/29 05:05:38;;;;;;;35.85;17.20;;;13.60;46.30;;;;;;5053774;28;20111;-72
2022/03/29 05:08:04;;;;;;;26.58;16.10;;;13.70;46.40;;;;;;5054319;28;20021;-71
2022/03/29 05:10:30;;;;;;;30.60;16.23;;;13.70;46.10;;;;;;5053511;28;20026;-76
2022/03/29 05:12:56;;;;;;;25.90;16.08;;;13.70;46.20;;;;;;5054020;28;20198;-70
2022/03/29 05:15:22;;;;;;;30.38;16.45;;;13.70;46.10;;;;;;5053488;28;20021;-71
2022/03/29 05:17:48;;;;;;;40.95;18.10;;;13.70;46.40;;;;;;5053170;28;20351;-73
2022/03/29 05:20:15;;;;;;;46.42;16.88;;;13.80;46.30;;;;;;5054106;28;20029;-71
2022/03/29 05:22:46;;;;;;;33.58;16.40;;;13.70;46.40;;;;;;5053237;28;20040;-71
2022/03/29 05:25:16;;;;;;;33.47;16.48;;;13.80;46.90;;;;;;5053881;28;20040;-71
2022/03/29 05:27:42;;;;;;;35.20;16.30;;;13.80;46.90;;;;;;5053204;28;20033;-71
2022/03/29 05:30:09;;;;;;;38.95;16.73;;;13.80;47.10;;;;;;5053266;28;20032;-71
2022/03/29 05:32:35;;;;;;;37.35;16.40;;;13.80;47.30;;;;;;5052839;28;20032;-71
2022/03/29 05:35:03;;;;;;;34.03;16.08;;;13.80;47.50;;;;;;5053642;28;20079;-71
2022/03/29 05:37:28;;;;;;;35.97;15.88;;;13.80;47.90;;;;;;5052986;28;20041;-72
2022/03/29 05:39:54;;;;;;;40.05;15.73;;;13.90;48.00;;;;;;5053788;28;20377;-71
2022/03/29 05:42:21;;;;;;;33.75;16.38;;;13.80;47.80;;;;;;5052491;28;20479;-72
2022/03/29 05:44:46;;;;;;;34.03;16.10;;;13.90;48.10;;;;;;5053057;28;20159;-70
2022/03/29 05:49:57;;;;;;;35.78;17.52;;;13.80;48.10;;;;;;5052801;28;20063;-70
2022/03/29 05:52:24;;;;;;;29.80;16.48;;;13.80;48.50;;;;;;5052582;28;20032;-70
2022/03/29 05:54:49;;;;;;;33.22;18.55;;;13.90;48.40;;;;;;5052765;28;20099;-69
2022/03/29 05:57:16;;;;;;;34.45;17.45;;;13.90;48.30;;;;;;5053408;28;20418;-70
2022/03/29 05:59:43;;;;;;;30.00;17.60;;;13.90;48.20;;;;;;5052629;28;20032;-69
2022/03/29 06:02:09;;;;;;;33.45;18.08;;;14.00;48.10;;;;;;5053141;28;20090;-69
2022/03/29 06:04:36;;;;;;;52.20;18.38;;;14.10;48.20;;;;;;5051952;28;20025;-70
2022/03/29 06:07:07;;;;;;;43.67;18.95;;;14.10;48.70;;;;;;5052962;28;20036;-70
2022/03/29 06:09:34;;;;;;;30.42;17.50;;;14.20;48.50;;;;;;5052472;28;20021;-69
2022/03/29 06:12:00;;;;;;;27.45;16.02;;;14.30;47.90;;;;;;5052506;28;20112;-70
2022/03/29 06:14:26;;;;;;;26.05;16.33;;;14.30;46.90;;;;;;5052198;28;20482;-70
2022/03/29 06:16:52;;;;;;;25.88;15.88;;;14.50;46.50;;;;;;5052205;28;20088;-70
2022/03/29 06:19:18;;;;;;;25.98;15.35;;;14.60;46.60;;;;;;5052499;28;20100;-70
2022/03/29 06:21:44;;;;;;;24.88;16.20;;;14.70;46.60;;;;;;5052248;28;20116;-70
2022/03/29 06:24:11;;;;;;;32.95;16.75;;;14.80;45.80;;;;;;5052639;28;20444;-70
2022/03/29 06:26:39;;;;;;;26.20;16.27;;;14.90;45.40;;;;;;5051986;28;20100;-71
2022/03/29 06:29:09;;;;;;;29.98;16.80;;;15.00;45.00;;;;;;5052524;28;20025;-70
2022/03/29 06:31:35;;;;;;;24.50;16.17;;;15.00;44.80;;;;;;5052033;28;20112;-71
2022/03/29 06:34:01;;;;;;;26.75;15.95;;;15.10;44.70;;;;;;5052612;28;20116;-71
2022/03/29 06:36:27;;;;;;;26.80;14.93;;;15.10;44.50;;;;;;5051905;28;20032;-70
2022/03/29 06:38:53;;;;;;;26.73;15.77;;;15.10;44.30;;;;;;5052056;28;20028;-71
2022/03/29 06:41:19;;;;;;;26.13;15.38;;;15.20;44.20;;;;;;5052270;28;20461;-70
2022/03/29 06:43:45;;;;;;;28.48;16.40;;;15.30;44.00;;;;;;5051657;28;20029;-70
2022/03/29 06:46:11;;;;;;;25.70;15.98;;;15.40;43.50;;;;;;5051117;28;20395;-70
2022/03/29 06:48:37;;;;;;;25.48;16.35;;;15.60;43.40;;;;;;5051438;28;20139;-70
2022/03/29 06:51:03;;;;;;;29.30;17.08;;;15.80;42.80;;;;;;5051833;28;20386;-69
2022/03/29 06:53:29;;;;;;;28.33;16.05;;;15.90;41.70;;;;;;5051565;28;20025;-70
2022/03/29 06:55:55;;;;;;;31.23;16.67;;;16.10;42.20;;;;;;5052017;28;20049;-71
2022/03/29 06:58:21;;;;;;;28.02;15.45;;;16.30;42.10;;;;;;5052182;28;20394;-71
2022/03/29 07:00:47;;;;;;;31.05;16.05;;;16.40;41.80;;;;;;5051457;28;20036;-70
2022/03/29 07:03:13;;;;;;;25.50;16.60;;;16.70;41.40;;;;;;5052113;28;20454;-70
2022/03/29 07:05:42;;;;;;;27.98;15.70;;;16.90;41.10;;;;;;5051001;28;20065;-70
2022/03/29 07:08:12;;;;;;;26.20;15.30;;;17.20;40.50;;;;;;5052115;28;20021;-70
2022/03/29 07:13:23;;;;;;;33.75;17.40;;;17.60;39.00;;;;;;5052017;28;20450;-70
2022/03/29 07:15:51;;;;;;;26.83;16.63;;;18.10;38.20;;;;;;5051425;28;20104;-70
2022/03/29 07:18:17;;;;;;;22.75;15.45;;;18.50;37.40;;;;;;5050658;28;20592;-70
2022/03/29 07:20:43;;;;;;;30.85;17.05;;;19.10;37.20;;;;;;5051242;28;20044;-70
2022/03/29 07:23:09;;;;;;;27.98;16.98;;;20.00;36.30;;;;;;5051567;28;20430;-70
2022/03/29 07:25:36;;;;;;;28.48;16.60;;;21.20;35.10;;;;;;5050103;28;20029;-69
2022/03/29 07:28:02;;;;;;;29.73;16.40;;;22.90;33.00;;;;;;5051568;28;20032;-71
2022/03/29 07:30:28;;;;;;;34.55;17.92;;;24.10;30.50;;;;;;5050992;28;20083;-72
2022/03/29 07:32:57;;;;;;;34.78;16.90;;;24.90;29.80;;;;;;5051234;28;20098;-71
2022/03/29 07:35:25;;;;;;;24.05;15.88;;;25.80;29.40;;;;;;5051699;28;20373;-71
2022/03/29 07:37:51;;;;;;;26.85;16.10;;;26.60;28.40;;;;;;5051145;28;20017;-71
2022/03/29 07:40:20;;;;;;;23.05;15.85;;;27.50;27.20;;;;;;5051426;28;20033;-71
2022/03/29 07:42:46;;;;;;;20.00;14.40;;;27.60;26.30;;;;;;5050937;28;20107;-71
2022/03/29 07:45:13;;;;;;;22.08;13.93;;;27.80;26.00;;;;;;5051605;28;20025;-69
2022/03/29 07:47:41;;;;;;;25.58;14.18;;;28.00;25.40;;;;;;5050854;28;20040;-71
2022/03/29 07:50:08;;;;;;;27.83;14.75;;;27.70;24.70;;;;;;5051428;28;20029;-72
2022/03/29 07:52:38;;;;;;;22.52;14.30;;;27.20;25.10;;;;;;5049352;28;20036;-71
2022/03/29 07:55:06;;;;;;;23.75;14.40;;;27.20;25.50;;;;;;5051067;28;20047;-71
2022/03/29 07:57:32;;;;;;;29.05;14.43;;;27.50;25.20;;;;;;5050814;28;20126;-72
2022/03/29 07:59:58;;;;;;;20.27;14.05;;;27.30;24.90;;;;;;5051215;28;20040;-71
2022/03/29 08:02:23;;;;;;;19.75;13.85;;;27.50;25.00;;;;;;5051648;28;20029;-71
2022/03/29 08:04:49;;;;;;;23.90;14.48;;;27.80;24.70;;;;;;5050141;28;20029;-72
2022/03/29 08:07:15;;;;;;;25.42;13.98;;;27.60;24.60;;;;;;5051671;28;20033;-71
2022/03/29 08:09:40;;;;;;;18.92;13.60;;;28.00;24.80;;;;;;5050828;28;20021;-71
2022/03/29 08:12:07;;;;;;;25.25;14.20;;;28.10;24.20;;;;;;5045525;28;20106;-72
2022/03/29 08:14:32;;;;;;;22.80;14.30;;;28.20;24.40;;;;;;5048532;28;20029;-70
2022/03/29 08:16:58;;;;;;;19.58;14.15;;;28.20;24.00;;;;;;5051347;28;20032;-72
2022/03/29 08:19:24;;;;;;;21.52;14.25;;;27.90;24.40;;;;;;5051818;28;20029;-72
2022/03/29 08:21:50;;;;;;;22.08;14.55;;;28.10;24.20;;;;;;5051271;28;20044;-71
2022/03/29 08:24:23;;;;;;;21.58;13.07;;;27.90;24.00;;;;;;5051504;28;20122;-70
2022/03/29 08:26:52;;;;;;;21.23;13.80;;;28.30;24.00;;;;;;5051193;28;20389;-71
2022/03/29 08:29:18;;;;;;;19.50;13.82;;;28.60;23.60;;;;;;5051150;28;20037;-71
2022/03/29 08:31:47;;;;;;;17.73;13.68;;;29.00;23.30;;;;;;5050725;28;20558;-71
2022/03/29 08:34:13;;;;;;;21.88;14.32;;;28.60;23.50;;;;;;5051231;28;20029;-72
2022/03/29 08:36:39;;;;;;;23.17;15.05;;;28.70;23.60;;;;;;5053106;28;20108;-72
2022/03/29 08:39:07;;;;;;;21.85;13.80;;;28.50;24.00;;;;;;5054809;28;20032;-72
2022/03/29 08:41:38;;;;;;;20.58;13.38;;;28.40;23.90;;;;;;5052859;28;20047;-72
2022/03/29 08:44:06;;;;;;;24.27;14.18;;;28.10;24.20;;;;;;5054607;28;20104;-72
2022/03/29 08:46:38;;;;;;;21.77;13.25;;;27.00;24.40;;;;;;5054264;28;20033;-72
2022/03/29 08:49:05;;;;;;;23.50;13.38;;;25.90;24.90;;;;;;5055093;28;20033;-71
2022/03/29 08:51:32;;;;;;;18.85;13.35;;;25.20;25.60;;;;;;5052583;28;20025;-74
2022/03/29 08:53:58;;;;;;;17.17;13.32;;;24.70;26.10;;;;;;5054684;28;20032;-71
2022/03/29 08:56:24;;;;;;;21.23;12.82;;;24.20;26.50;;;;;;5054744;28;20052;-72
2022/03/29 08:58:50;;;;;;;24.90;13.25;;;23.80;26.90;;;;;;5052740;28;20382;-72
2022/03/29 09:01:19;;;;;;;18.67;13.32;;;23.50;27.40;;;;;;5054175;28;20039;-72
2022/03/29 09:03:47;;;;;;;20.35;13.25;;;23.30;27.80;;;;;;5053804;28;20035;-70
2022/03/29 09:06:13;;;;;;;26.13;13.45;;;23.20;27.80;;;;;;5054431;28;20112;-72
2022/03/29 09:08:46;;;;;;;19.52;13.27;;;23.10;27.70;;;;;;5053750;28;20517;-72
2022/03/29 09:11:13;;;;;;;23.50;13.05;;;23.00;28.30;;;;;;5054645;28;20029;-72
2022/03/29 09:13:40;;;;;;;22.38;12.77;;;22.90;28.00;;;;;;5053816;28;20059;-73
2022/03/29 09:16:08;;;;;;;20.08;12.57;;;22.70;28.60;;;;;;5054140;28;20033;-72
2022/03/29 09:18:34;;;;;;;19.52;14.23;;;22.70;28.60;;;;;;5053505;28;20461;-71
2022/03/29 09:21:14;;;;;;;21.27;13.65;;;22.60;28.90;;;;;;5054199;28;20061;-71
2022/03/29 09:23:41;;;;;;;23.40;13.88;;;22.70;29.20;;;;;;5053749;28;20039;-73
2022/03/29 09:26:24;;;;;;;17.15;12.82;;;22.70;29.20;;;;;;5053715;28;20063;-72
2022/03/29 09:28:50;;;;;;;15.68;10.52;;;22.70;28.80;;;;;;5053754;28;20033;-73
2022/03/29 09:31:19;;;;;;;13.13;10.30;;;22.50;28.90;;;;;;5054067;28;20060;-72
2022/03/29 09:33:45;;;;;;;17.10;10.32;;;22.50;29.30;;;;;;5053240;28;20033;-72
2022/03/29 09:36:14;;;;;;;17.50;10.27;;;22.40;29.20;;;;;;5053972;28;20029;-71
2022/03/29 09:38:42;;;;;;;14.27;10.57;;;22.20;29.10;;;;;;5053316;28;20051;-72
2022/03/29 09:41:28;;;;;;;16.67;10.30;;;22.20;29.30;;;;;;5053189;28;20436;-71
2022/03/29 09:44:11;;;;;;;21.73;10.88;;;22.20;29.60;;;;;;5052962;28;20091;-72
2022/03/29 09:46:56;;;;;;;16.02;10.88;;;22.30;29.60;;;;;;5052461;28;20137;-72
2022/03/29 09:49:23;;;;;;;23.27;11.25;;;22.30;29.50;;;;;;5053189;28;20477;-72
2022/03/29 09:52:08;;;;;;;15.73;11.15;;;22.30;29.60;;;;;;5052656;28;20527;-71
2022/03/29 09:54:34;;;;;;;17.95;12.38;;;22.30;29.90;;;;;;5053298;28;20036;-71
2022/03/29 09:57:00;;;;;;;14.90;10.80;;;22.30;29.50;;;;;;5053056;28;20100;-72
2022/03/29 09:59:26;;;;;;;16.42;10.75;;;22.30;29.70;;;;;;5053383;28;20398;-71
2022/03/29 10:01:55;;;;;;;17.70;11.43;;;22.30;29.90;;;;;;5052738;28;20031;-71
2022/03/29 10:04:23;;;;;;;19.48;10.50;;;22.40;29.80;;;;;;5053086;28;20041;-71
2022/03/29 10:06:54;;;;;;;18.45;11.38;;;22.40;29.50;;;;;;5052545;28;20040;-71
2022/03/29 10:09:30;;;;;;;17.20;10.95;;;22.30;29.40;;;;;;5053159;28;20374;-71
2022/03/29 10:12:04;;;;;;;17.27;10.57;;;22.20;29.70;;;;;;5052136;28;20040;-71
2022/03/29 10:14:41;;;;;;;23.50;11.48;;;22.20;29.90;;;;;;5033074;28;20033;-72
2022/03/29 10:17:08;;;;;;;15.40;9.77;;;22.30;29.30;;;;;;5033013;28;20508;-72
2022/03/29 10:19:35;;;;;;;17.10;10.70;;;22.30;29.30;;;;;;5032746;28;20025;-71
2022/03/29 10:22:02;;;;;;;15.57;10.15;;;22.30;29.50;;;;;;5032175;28;20373;-72
2022/03/29 10:24:29;;;;;;;15.07;10.25;;;22.30;28.80;;;;;;5032709;28;20033;-72
2022/03/29 10:26:56;;;;;;;17.67;11.02;;;22.30;28.30;;;;;;5032165;28;20100;-71
2022/03/29 10:29:23;;;;;;;20.40;10.23;;;22.00;28.20;;;;;;5032655;28;20498;-72
2022/03/29 10:31:56;;;;;;;19.17;10.18;;;22.00;28.60;;;;;;5031679;28;20036;-71
2022/03/29 10:34:21;;;;;;;15.23;11.23;;;22.00;28.60;;;;;;5032623;28;20033;-72
2022/03/29 10:37:07;;;;;;;15.20;10.20;;;22.00;29.10;;;;;;5031853;28;20033;-73
2022/03/29 10:39:39;;;;;;;16.00;10.30;;;22.00;29.20;;;;;;5032186;28;20148;-71
2022/03/29 10:42:23;;;;;;;16.67;10.25;;;22.00;28.20;;;;;;5032464;28;20360;-72
2022/03/29 10:45:12;;;;;;;17.25;12.13;;;22.00;28.60;;;;;;5031320;28;20483;-71
2022/03/29 10:47:39;;;;;;;20.05;11.57;;;22.10;29.20;;;;;;5032447;28;20056;-71
2022/03/29 10:50:07;;;;;;;15.95;11.30;;;22.00;27.70;;;;;;5032550;28;20060;-71
2022/03/29 10:52:40;;;;;;;16.05;11.48;;;21.90;27.80;;;;;;5032372;28;20119;-72
2022/03/29 10:55:25;;;;;;;16.02;10.73;;;22.00;28.20;;;;;;5032023;28;20053;-71
2022/03/29 10:58:11;;;;;;;16.23;10.60;;;22.10;28.80;;;;;;5031430;28;20029;-72
2022/03/29 11:00:42;;;;;;;31.30;12.73;;;22.20;28.50;;;;;;5032413;28;20064;-71
2022/03/29 11:03:09;;;;;;;20.80;11.50;;;22.20;27.80;;;;;;5032463;28;20026;-71
2022/03/29 11:06:10;;;;;;;17.42;11.88;;;22.10;27.80;;;;;;5032502;28;20040;-72
2022/03/29 11:09:08;;;;;;;19.98;11.95;;;22.00;27.80;;;;;;5032374;28;20393;-73
2022/03/29 11:11:43;;;;;;;15.05;10.90;;;22.00;28.00;;;;;;5031499;28;20393;-71
2022/03/29 11:14:45;;;;;;;19.30;12.20;;;22.10;27.50;;;;;;5031930;28;20030;-72
2022/03/29 11:17:11;;;;;;;17.88;11.43;;;22.00;27.80;;;;;;4974082;28;20040;-72
2022/03/29 11:19:44;;;;;;;15.98;11.15;;;21.90;27.60;;;;;;5023693;28;20116;-73
2022/03/29 11:22:23;;;;;;;18.42;12.05;;;21.90;27.40;;;;;;5032354;28;20025;-72
2022/03/29 11:24:51;;;;;;;18.45;12.43;;;21.90;27.90;;;;;;5031221;28;20029;-71
2022/03/29 11:27:26;;;;;;;17.02;11.48;;;21.90;28.00;;;;;;5031485;28;20470;-71
2022/03/29 11:29:52;;;;;;;19.13;12.48;;;22.00;28.10;;;;;;5045363;28;20111;-72
2022/03/29 11:32:19;;;;;;;16.67;11.57;;;22.00;28.30;;;;;;5050514;28;20438;-72
2022/03/29 11:34:46;;;;;;;21.45;11.85;;;22.10;27.90;;;;;;5051247;28;20035;-72
2022/03/29 11:37:43;;;;;;;16.48;11.45;;;22.10;27.50;;;;;;5051623;28;20029;-70
2022/03/29 11:40:14;;;;;;;21.10;11.73;;;22.00;28.00;;;;;;5043506;28;20449;-72
2022/03/29 11:42:55;;;;;;;22.63;11.60;;;22.00;27.50;;;;;;5051626;28;20100;-72
2022/03/29 11:45:24;;;;;;;15.85;11.68;;;21.90;27.60;;;;;;5051337;28;20044;-71
2022/03/29 11:47:57;;;;;;;16.55;12.27;;;21.90;27.80;;;;;;5050946;28;20098;-72
2022/03/29 11:50:43;;;;;;;18.40;12.07;;;21.90;28.00;;;;;;5051653;28;20079;-72
2022/03/29 11:53:25;;;;;;;16.88;12.25;;;21.90;28.20;;;;;;5052087;28;20116;-72
2022/03/29 11:55:54;;;;;;;17.50;11.95;;;22.00;28.10;;;;;;5050503;28;20053;-72
2022/03/29 11:58:25;;;;;;;16.63;10.70;;;22.00;28.60;;;;;;5051739;28;20049;-72
2022/03/29 12:00:51;;;;;;;21.48;12.52;;;22.10;27.80;;;;;;5050845;28;20334;-71
2022/03/29 12:03:34;;;;;;;18.42;13.07;;;22.10;27.80;;;;;;5051529;28;20029;-72
2022/03/29 12:06:07;;;;;;;15.57;12.15;;;22.10;27.50;;;;;;5050890;28;20056;-72
2022/03/29 12:08:47;;;;;;;17.52;12.48;;;22.10;28.00;;;;;;5051490;28;20021;-72
2022/03/29 12:11:15;;;;;;;18.42;11.82;;;22.10;27.80;;;;;;5053464;28;20029;-72
2022/03/29 12:13:45;;;;;;;17.23;12.23;;;22.10;27.80;;;;;;5055376;28;20116;-72
2022/03/29 12:16:17;;;;;;;17.80;12.20;;;22.00;27.80;;;;;;5055261;28;20101;-72
2022/03/29 12:18:45;;;;;;;26.20;12.10;;;22.10;27.80;;;;;;5055184;28;20381;-72
2022/03/29 12:21:13;;;;;;;17.45;12.68;;;22.00;28.10;;;;;;5054997;28;20108;-71
2022/03/29 12:23:39;;;;;;;18.83;12.27;;;22.00;28.30;;;;;;5055131;28;20021;-72
2022/03/29 12:26:06;;;;;;;18.50;11.70;;;22.00;27.90;;;;;;5054564;28;20467;-71
2022/03/29 12:28:32;;;;;;;17.17;12.43;;;22.00;28.20;;;;;;5055125;28;20029;-71
2022/03/29 12:30:58;;;;;;;22.48;12.13;;;22.00;28.50;;;;;;5052850;28;20381;-72
2022/03/29 12:33:24;;;;;;;18.23;11.38;;;21.90;27.60;;;;;;5054745;28;20025;-72
2022/03/29 12:36:16;;;;;;;23.33;11.43;;;21.90;27.90;;;;;;5054247;28;20025;-72
2022/03/29 12:38:44;;;;;;;;;;;21.90;28.00;;;;;;5055029;28;20021;-71
2022/03/29 12:41:12;;;;;;;17.65;10.70;;;21.90;27.60;;;;;;5054081;28;19905;-70
2022/03/29 12:43:51;;;;;;;23.55;12.40;;;22.00;27.80;;;;;;5054792;28;20029;-72